首页
METAR-TAF:

METAR-TAF

机场 :

丹維爾, 弗吉尼亚州, 美国

纬度: 36-34-22N, 经度: 079-20-10W, 海拔: 174米

当前天气观测

该预报发布于1小时和3分钟前的04:53 UTC
风速5节,风向西转西南
温度 11°C
湿度 94%
气压 1013 hPa
能見度: 16.1公里
天空无云

METAR: KDAN 230453Z AUTO 25005KT 10SM CLR 11/10 A2992 RMK AO2 SLP126 T01060100 402000100

时间: 01:56 (05:56 UTC)

预报

该预报发布于6小时和32分钟前的23:24 UTC
预报有效从23日的 00点(UTC)到 23日的 24点(UTC)
风速节,风向
能見度: 6.4公里
散云层高于25000英尺
轻雾
短暂存在
从 23日的 00点(UTC)到 23日的 02点(UTC)
能見度: 1.6公里
多云层高于25000英尺
轻雾
从 23日的 0200点(UTC)
风速2节,风向多变
能見度: 10公里
少量云层高于25000英尺
从 23日的 1400点(UTC)
风速5节,风向西转西北
能見度: 10公里
天空无云
从 23日的 2200点(UTC)
风速3节,风向多变
能見度: 10公里
天空无云

TAF: KDAN 222324Z 2300/2324 00000KT 4SM BR SCT250 TEMPO 2300/2302 1SM BR BKN250 FM230200 VRB02KT P6SM FEW250 FM231400 30005KT P6SM SKC FM232200 VRB03KT P6SM SKC

超过4000个机场的气象观测和天气预报(METAR&TAF报告)。

可查询的气象台以黄色和红色小点在地图上表示。

将鼠标移到小点上方,可查看气象台名称。

然后点击查看天气观测和预报。

如需切换地图:点击带黑十字的绿色按钮放大地图;点击带横线的绿色按钮缩小地图;或者点击绿色箭头查看邻近地区的地图。


METAR-TAF: